Time;durP1;ratioP1;P1;durP2;ratioP2;P2;SDS_P1;SDS_P2;PMS_P1;PMS_P2;Temp;Humidity;BMP_temperature;BMP_pressure;BME280_temperature;BME280_humidity;BME280_pressure;Samples;Min_cycle;Max_cycle;Signal;HPM_P1;HPM_P2
2023/07/21 00:01:06;;;;;;;6.70;5.30;;;;;;;13.11;100.00;101117.28;5002360;28;20030;-61
2023/07/21 00:03:35;;;;;;;8.50;6.18;;;;;;;13.09;100.00;101108.56;4991702;28;20044;-61
2023/07/21 00:06:03;;;;;;;6.63;5.82;;;;;;;13.09;100.00;101124.16;4991890;28;20516;-61
2023/07/21 00:08:29;;;;;;;6.18;5.38;;;;;;;13.09;100.00;101118.97;5004597;28;20022;-61
2023/07/21 00:10:56;;;;;;;6.80;6.13;;;;;;;13.09;100.00;101114.66;5002567;28;20020;-61
2023/07/21 00:13:21;;;;;;;7.43;6.40;;;;;;;13.09;100.00;101109.44;5011082;28;20026;-61
2023/07/21 00:15:49;;;;;;;6.85;6.20;;;;;;;13.08;100.00;101106.78;5010495;28;20422;-60
2023/07/21 00:18:14;;;;;;;6.32;5.82;;;;;;;13.08;100.00;101106.78;5006529;28;20075;-60
2023/07/21 00:20:39;;;;;;;6.72;6.00;;;;;;;13.06;100.00;101103.28;5010502;28;20029;-60
2023/07/21 00:23:05;;;;;;;6.28;5.68;;;;;;;13.04;100.00;101104.97;5008617;28;20022;-61
2023/07/21 00:25:30;;;;;;;6.63;6.03;;;;;;;13.03;100.00;101103.19;5008715;28;20021;-61
2023/07/21 00:27:55;;;;;;;7.13;6.60;;;;;;;13.01;100.00;101110.94;5010333;28;20072;-61
2023/07/21 00:30:22;;;;;;;7.72;6.63;;;;;;;13.02;100.00;101101.44;5010707;28;20111;-61
2023/07/21 00:32:47;;;;;;;6.93;6.32;;;;;;;12.99;100.00;101097.00;5009220;28;20030;-62
2023/07/21 00:35:13;;;;;;;7.75;7.05;;;;;;;12.98;100.00;101095.28;5010912;28;20034;-61
2023/07/21 00:37:39;;;;;;;7.65;6.95;;;;;;;12.96;100.00;101092.63;5010066;28;20033;-61
2023/07/21 00:40:09;;;;;;;8.38;7.35;;;;;;;12.95;100.00;101093.44;5010689;28;20120;-62
2023/07/21 00:42:35;;;;;;;8.48;7.65;;;;;;;12.99;100.00;101094.41;4997303;28;20070;-60
2023/07/21 00:45:01;;;;;;;8.02;7.28;;;;;;;12.99;100.00;101097.00;5009782;28;20055;-60
2023/07/21 00:47:28;;;;;;;7.88;7.28;;;;;;;13.00;100.00;101091.00;5000639;28;20033;-62
2023/07/21 00:49:54;;;;;;;8.10;7.40;;;;;;;13.03;100.00;101082.38;5004513;28;20029;-61
2023/07/21 00:52:19;;;;;;;9.52;8.68;;;;;;;13.02;100.00;101085.81;4992787;28;20437;-61
2023/07/21 00:54:45;;;;;;;9.30;8.40;;;;;;;13.03;100.00;101087.56;5001071;28;20034;-60
2023/07/21 00:57:11;;;;;;;8.70;8.02;;;;;;;13.02;100.00;101085.81;4996872;28;20129;-61
2023/07/21 00:59:36;;;;;;;8.80;8.20;;;;;;;13.01;100.00;101090.13;5010096;28;20108;-61
2023/07/21 01:02:03;;;;;;;9.02;8.32;;;;;;;13.00;100.00;101082.28;5009420;28;20330;-61
2023/07/21 01:04:30;;;;;;;9.38;7.70;;;;;;;13.00;100.00;101082.28;4999243;28;20439;-61
2023/07/21 01:06:55;;;;;;;9.00;8.10;;;;;;;12.99;100.00;101078.81;5003321;28;20811;-61
2023/07/21 01:09:22;;;;;;;9.88;8.30;;;;;;;12.98;100.00;101074.47;4990510;28;20030;-60
2023/07/21 01:11:47;;;;;;;8.77;8.07;;;;;;;12.96;100.00;101061.41;4991076;28;20026;-61
2023/07/21 01:14:13;;;;;;;9.13;8.32;;;;;;;12.95;100.00;101070.03;4990587;28;20431;-61
2023/07/21 01:16:43;;;;;;;9.05;8.35;;;;;;;12.95;100.00;101064.00;4990840;28;20113;-62
2023/07/21 01:19:13;;;;;;;8.43;7.82;;;;;;;12.94;100.00;101059.59;4991088;28;20106;-61
2023/07/21 01:21:46;;;;;;;8.98;8.27;;;;;;;12.92;100.00;101054.38;4990151;28;20121;-61
2023/07/21 01:24:31;;;;;;;8.60;7.80;;;;;;;12.92;100.00;101066.47;4991119;28;20433;-61
2023/07/21 01:26:57;;;;;;;8.40;7.65;;;;;;;12.91;100.00;101055.22;4991050;28;20102;-62
2023/07/21 01:29:25;;;;;;;8.65;7.93;;;;;;;12.87;100.00;101055.09;4994644;28;20018;-60
2023/07/21 01:31:53;;;;;;;9.50;8.60;;;;;;;12.84;100.00;101055.91;4999485;28;20029;-61
2023/07/21 01:34:20;;;;;;;9.63;8.82;;;;;;;12.79;100.00;101052.31;4990723;28;20033;-62
2023/07/21 01:36:46;;;;;;;8.93;8.23;;;;;;;12.76;100.00;101052.19;4990235;28;20110;-61
2023/07/21 01:39:12;;;;;;;9.32;8.63;;;;;;;12.71;100.00;101045.19;5007635;28;20097;-61
2023/07/21 01:41:38;;;;;;;9.00;8.30;;;;;;;12.70;100.00;101052.94;5003559;28;20063;-62
2023/07/21 01:44:03;;;;;;;9.05;7.88;;;;;;;12.67;100.00;101043.31;5002931;28;20046;-62
2023/07/21 01:46:29;;;;;;;8.98;8.38;;;;;;;12.62;100.00;101039.72;5002943;28;20540;-61
2023/07/21 01:48:54;;;;;;;8.60;7.90;;;;;;;12.59;100.00;101050.06;5008842;28;20030;-62
2023/07/21 01:51:21;;;;;;;9.90;7.97;;;;;;;12.55;100.00;101038.69;4999332;28;20034;-60
2023/07/21 01:53:54;;;;;;;8.80;8.00;;;;;;;12.53;100.00;101036.88;5002311;28;20455;-61
2023/07/21 01:56:43;;;;;;;9.63;8.77;;;;;;;12.50;100.00;101032.50;4989680;28;20029;-61
2023/07/21 01:59:10;;;;;;;9.45;8.63;;;;;;;12.47;100.00;101038.47;4996860;28;20049;-60
2023/07/21 02:01:38;;;;;;;9.63;8.65;;;;;;;12.42;100.00;101032.28;4996470;28;20135;-61
2023/07/21 02:04:03;;;;;;;10.15;9.15;;;;;;;12.41;100.00;101029.63;4990107;28;20085;-61
2023/07/21 02:06:29;;;;;;;8.75;8.05;;;;;;;12.39;100.00;101031.31;4990552;28;20026;-61
2023/07/21 02:08:54;;;;;;;10.35;9.35;;;;;;;12.37;100.00;101036.47;4990210;28;20088;-61
2023/07/21 02:11:22;;;;;;;9.02;8.02;;;;;;;12.33;100.00;101025.09;4990765;28;20014;-61
2023/07/21 02:13:47;;;;;;;9.82;8.82;;;;;;;12.34;100.00;101023.41;4990335;28;20458;-61
2023/07/21 02:16:13;;;;;;;9.93;8.95;;;;;;;12.35;100.00;101025.13;4990316;28;20103;-61
2023/07/21 02:18:39;;;;;;;10.23;9.32;;;;;;;12.34;100.00;101023.41;4988999;28;20022;-62
2023/07/21 02:21:04;;;;;;;9.50;8.70;;;;;;;12.32;100.00;101014.66;4989513;28;20026;-61
2023/07/21 02:23:31;;;;;;;10.00;9.20;;;;;;;12.30;100.00;101016.34;4989835;28;20262;-61
2023/07/21 02:25:57;;;;;;;9.48;8.70;;;;;;;12.29;100.00;101019.75;4992076;28;20117;-62
2023/07/21 02:28:23;;;;;;;10.43;9.40;;;;;;;12.27;100.00;101016.25;5000131;28;20069;-61
2023/07/21 02:31:03;;;;;;;10.05;9.18;;;;;;;12.26;100.00;101020.56;5002685;28;20018;-61
2023/07/21 02:33:32;;;;;;;10.32;9.43;;;;;;;12.23;100.00;101023.94;4989364;28;20431;-61
2023/07/21 02:36:00;;;;;;;9.75;8.80;;;;;;;12.20;100.00;101018.69;4989809;28;20025;-60
2023/07/21 02:38:26;;;;;;;10.35;9.48;;;;;;;12.15;100.00;101019.38;5001335;28;20030;-62
2023/07/21 02:40:51;;;;;;;9.70;8.93;;;;;;;12.08;100.00;101020.91;5007996;28;20552;-61
2023/07/21 02:43:17;;;;;;;10.05;9.15;;;;;;;12.07;100.00;101020.00;5007966;28;20041;-61
2023/07/21 02:45:53;;;;;;;10.57;9.68;;;;;;;12.09;100.00;101017.44;5005696;28;20482;-62
2023/07/21 02:48:19;;;;;;;10.65;9.85;;;;;;;12.08;100.00;101018.28;5007702;28;20022;-61
2023/07/21 02:50:48;;;;;;;10.80;9.88;;;;;;;12.07;100.00;101011.34;4998964;28;20550;-61
2023/07/21 02:53:13;;;;;;;9.23;8.30;;;;;;;12.05;100.00;101005.22;4988553;28;20038;-60
2023/07/21 02:55:39;;;;;;;10.07;9.20;;;;;;;12.01;100.00;101007.75;5003811;28;20486;-61
2023/07/21 02:58:04;;;;;;;9.52;8.63;;;;;;;12.01;100.00;101010.34;5007523;28;20087;-62
2023/07/21 03:00:30;;;;;;;9.82;8.82;;;;;;;12.01;100.00;101010.34;5007111;28;20018;-61
2023/07/21 03:02:55;;;;;;;9.68;8.77;;;;;;;11.97;100.00;101008.47;5007834;28;20022;-61
2023/07/21 03:05:21;;;;;;;10.23;9.43;;;;;;;11.97;100.00;101011.09;5007619;28;20030;-61
2023/07/21 03:07:46;;;;;;;9.57;8.77;;;;;;;11.97;100.00;101005.88;4988563;28;20026;-62
2023/07/21 03:10:12;;;;;;;8.75;8.05;;;;;;;11.95;100.00;101009.25;5000448;28;20025;-61
2023/07/21 03:12:37;;;;;;;8.70;7.95;;;;;;;11.93;100.00;101005.72;4994414;28;20033;-61
2023/07/21 03:15:03;;;;;;;8.63;7.82;;;;;;;11.92;100.00;101004.88;5007545;28;20426;-60
2023/07/21 03:17:29;;;;;;;8.20;7.53;;;;;;;11.91;100.00;101008.28;5006821;28;20033;-61
2023/07/21 03:19:54;;;;;;;8.52;7.82;;;;;;;11.86;100.00;101008.16;5006439;28;20029;-60
2023/07/21 03:22:19;;;;;;;8.38;7.63;;;;;;;11.84;100.00;101011.53;5007389;28;20470;-61
2023/07/21 03:24:45;;;;;;;8.77;7.97;;;;;;;11.79;100.00;101008.81;5002120;28;20026;-61
2023/07/21 03:27:12;;;;;;;8.85;8.15;;;;;;;11.76;100.00;101003.53;4999844;28;20037;-61
2023/07/21 03:29:38;;;;;;;8.43;7.63;;;;;;;11.75;100.00;101006.97;5006816;28;20032;-61
2023/07/21 03:32:04;;;;;;;8.95;8.15;;;;;;;11.72;100.00;101012.97;5006931;28;20472;-61
2023/07/21 03:34:30;;;;;;;9.73;8.82;;;;;;;11.71;100.00;101012.91;5006888;28;20018;-61
2023/07/21 03:36:55;;;;;;;9.27;8.57;;;;;;;11.68;100.00;101011.09;5005939;28;20272;-61
2023/07/21 03:39:23;;;;;;;10.27;9.38;;;;;;;11.67;100.00;101009.34;5004700;28;20076;-62
2023/07/21 03:41:48;;;;;;;9.82;8.98;;;;;;;11.63;100.00;101010.97;5005397;28;20472;-61
2023/07/21 03:44:14;;;;;;;9.65;8.85;;;;;;;11.61;100.00;101014.34;5004912;28;20191;-62
2023/07/21 03:46:39;;;;;;;10.20;9.23;;;;;;;11.58;100.00;101003.88;5004683;28;20492;-61
2023/07/21 03:49:05;;;;;;;10.45;9.45;;;;;;;11.56;100.00;101010.72;5004759;28;20049;-61
2023/07/21 03:51:30;;;;;;;9.55;8.65;;;;;;;11.56;100.00;101009.00;4993586;28;20031;-61
2023/07/21 03:53:58;;;;;;;9.05;8.23;;;;;;;11.52;100.00;101008.03;5004549;28;20454;-61
2023/07/21 03:56:26;;;;;;;8.77;7.97;;;;;;;11.53;100.00;101012.38;4996325;28;20161;-61
2023/07/21 03:58:53;;;;;;;8.90;8.20;;;;;;;11.50;100.00;101007.09;5000766;28;20048;-60
2023/07/21 04:01:19;;;;;;;8.38;7.68;;;;;;;11.50;100.00;101012.28;4987421;28;20026;-61
2023/07/21 04:03:44;;;;;;;8.82;8.02;;;;;;;11.50;100.00;101011.41;4987879;28;20026;-61
2023/07/21 04:06:10;;;;;;;8.35;7.63;;;;;;;11.48;100.00;101010.47;4988296;28;20463;-60
2023/07/21 04:08:35;;;;;;;9.40;8.60;;;;;;;11.47;100.00;101004.44;4993682;28;20058;-60
2023/07/21 04:11:01;;;;;;;8.25;7.40;;;;;;;11.46;100.00;101000.06;5007436;28;20294;-61
2023/07/21 04:13:27;;;;;;;9.55;8.70;;;;;;;11.40;100.00;100995.53;4988594;28;20042;-60
2023/07/21 04:15:52;;;;;;;9.45;8.75;;;;;;;11.35;100.00;100991.94;4988691;28;20032;-60
2023/07/21 04:18:17;;;;;;;9.93;9.10;;;;;;;11.36;100.00;100991.13;4988575;28;20526;-61
2023/07/21 04:20:43;;;;;;;9.68;8.77;;;;;;;11.35;100.00;100989.34;4988440;28;20026;-61
2023/07/21 04:23:09;;;;;;;9.90;8.93;;;;;;;11.37;100.00;100984.22;4988434;28;20161;-61
2023/07/21 04:25:34;;;;;;;10.23;9.32;;;;;;;11.40;100.00;100984.31;4988475;28;20129;-61
2023/07/21 04:28:00;;;;;;;10.25;9.35;;;;;;;11.40;100.00;100979.13;4988634;28;20522;-61
2023/07/21 04:30:26;;;;;;;9.85;8.95;;;;;;;11.43;100.00;100981.81;4988944;28;20109;-61
2023/07/21 04:32:52;;;;;;;9.77;8.93;;;;;;;11.46;100.00;100983.63;5001833;28;20109;-61
2023/07/21 04:35:17;;;;;;;9.90;9.10;;;;;;;11.48;100.00;100988.00;4988493;28;20036;-61
2023/07/21 04:37:43;;;;;;;9.43;8.52;;;;;;;11.49;100.00;100982.00;4988934;28;20026;-61
2023/07/21 04:40:11;;;;;;;10.35;9.32;;;;;;;11.50;100.00;100982.84;4989140;28;20030;-61
2023/07/21 04:42:36;;;;;;;10.18;9.18;;;;;;;11.51;100.00;100977.72;4989449;28;20038;-61
2023/07/21 04:45:02;;;;;;;10.75;9.75;;;;;;;11.52;100.00;100988.97;4991890;28;20033;-61
2023/07/21 04:47:27;;;;;;;11.52;10.43;;;;;;;11.52;100.00;100982.09;5004519;28;20778;-62
2023/07/21 04:49:53;;;;;;;11.68;10.68;;;;;;;11.52;100.00;100984.69;4993941;28;20114;-61
2023/07/21 04:52:19;;;;;;;12.35;10.77;;;;;;;11.58;100.00;100976.22;4991672;28;20080;-60
2023/07/21 04:54:44;;;;;;;10.95;10.05;;;;;;;11.64;100.00;100978.06;5002613;28;20104;-62
2023/07/21 04:57:10;;;;;;;11.55;10.45;;;;;;;11.69;100.00;100971.34;5010281;28;20032;-61
2023/07/21 04:59:36;;;;;;;12.35;11.25;;;;;;;11.74;100.00;100974.06;4999864;28;20465;-60
2023/07/21 05:02:01;;;;;;;12.38;11.27;;;;;;;11.81;100.00;100973.41;4991287;28;20022;-61
2023/07/21 05:04:27;;;;;;;12.30;11.10;;;;;;;11.87;100.00;100976.16;4991490;28;20112;-61
2023/07/21 05:06:52;;;;;;;13.25;11.30;;;;;;;11.97;100.00;100979.91;4991220;28;20022;-61
2023/07/21 05:09:19;;;;;;;14.48;11.77;;;;;;;12.09;100.00;100978.47;4991379;28;20030;-61
2023/07/21 05:11:45;;;;;;;11.85;10.82;;;;;;;12.19;100.00;100970.16;4992090;28;20030;-62
2023/07/21 05:14:11;;;;;;;12.43;11.25;;;;;;;12.31;100.00;100971.31;4991437;28;20580;-63
2023/07/21 05:16:37;;;;;;;13.52;12.32;;;;;;;12.42;100.00;100967.28;4993283;28;20141;-61
2023/07/21 05:19:03;;;;;;;14.43;12.80;;;;;;;12.52;100.00;100973.59;4992481;28;20026;-61
2023/07/21 05:21:28;;;;;;;12.60;11.40;;;;;;;12.61;100.00;100978.16;4996986;28;20080;-61
2023/07/21 05:23:54;;;;;;;14.38;11.90;;;;;;;12.70;100.00;100973.19;5004916;28;20030;-61
2023/07/21 05:26:21;;;;;;;13.95;12.63;;;;;;;12.80;100.00;100968.25;5005452;28;20025;-62
2023/07/21 05:28:46;;;;;;;14.32;12.05;;;;;;;12.89;100.00;100971.06;5003429;28;20030;-61
2023/07/21 05:31:12;;;;;;;17.33;12.73;;;;;;;13.01;100.00;100967.00;5006180;28;20026;-63
2023/07/21 05:33:37;;;;;;;14.23;12.85;;;;;;;13.14;100.00;100976.88;4999917;28;20037;-62
2023/07/21 05:36:09;;;;;;;15.15;13.32;;;;;;;13.27;100.00;100977.16;4988977;28;20095;-61
2023/07/21 05:38:35;;;;;;;14.25;12.82;;;;;;;13.41;100.00;100982.66;4999748;28;20044;-62
2023/07/21 05:41:01;;;;;;;14.50;13.00;;;;;;;13.54;100.00;100976.03;4992804;28;20410;-61
2023/07/21 05:43:26;;;;;;;12.85;11.63;;;;;;;13.69;100.00;100981.56;4993536;28;20058;-62
2023/07/21 05:45:51;;;;;;;13.85;12.43;;;;;;;13.82;100.00;100987.03;4994068;28;20062;-61
2023/07/21 05:48:17;;;;;;;13.52;12.40;;;;;;;13.96;100.00;100982.09;5006406;28;20036;-62
2023/07/21 05:50:42;;;;;;;13.98;12.88;;;;;;;14.07;100.00;100979.72;4994312;28;20042;-61
2023/07/21 05:53:07;;;;;;;15.20;13.90;;;;;;;14.19;100.00;100970.41;4999814;28;20104;-61
2023/07/21 05:55:32;;;;;;;15.35;13.95;;;;;;;14.29;100.00;100972.31;4997914;28;20034;-62
2023/07/21 05:57:58;;;;;;;14.70;13.35;;;;;;;14.37;100.00;100978.53;4998841;28;20469;-60
2023/07/21 06:00:25;;;;;;;14.38;12.85;;;;;;;14.43;100.00;100975.19;4997308;28;20041;-62
2023/07/21 06:02:50;;;;;;;13.88;12.73;;;;;;;14.50;100.00;100986.59;4991481;28;20034;-61
2023/07/21 06:05:16;;;;;;;14.50;13.18;;;;;;;14.56;100.00;100976.28;4992797;28;20103;-62
2023/07/21 06:07:43;;;;;;;16.08;14.48;;;;;;;14.58;100.00;100974.59;5000642;28;20036;-62
2023/07/21 06:10:09;;;;;;;14.18;12.88;;;;;;;14.63;100.00;100978.16;5001761;28;20401;-62
2023/07/21 06:12:34;;;;;;;14.90;13.50;;;;;;;14.70;100.00;100983.47;5003768;28;20034;-61
2023/07/21 06:15:00;;;;;;;14.10;12.90;;;;;;;14.76;100.00;100989.69;4991194;28;20092;-62
2023/07/21 06:17:26;;;;;;;15.60;14.25;;;;;;;14.86;100.00;100982.91;5002074;28;20053;-62
2023/07/21 06:19:52;;;;;;;13.20;11.73;;;;;;;14.96;100.00;100985.66;4995846;28;20474;-62
2023/07/21 06:22:17;;;;;;;13.93;12.68;;;;;;;15.06;100.00;100982.34;4997389;28;20533;-62
2023/07/21 06:24:43;;;;;;;15.48;14.18;;;;;;;15.16;100.00;100983.38;4997618;28;20026;-61
2023/07/21 06:27:10;;;;;;;15.70;14.40;;;;;;;15.26;100.00;100984.38;4996376;28;20101;-61
2023/07/21 06:29:35;;;;;;;13.32;12.13;;;;;;;15.41;100.00;100982.84;5006607;28;20125;-61
2023/07/21 06:32:00;;;;;;;13.98;12.77;;;;;;;15.61;100.00;100976.16;5007186;28;20068;-61
2023/07/21 06:34:26;;;;;;;14.18;12.77;;;;;;;15.79;100.00;100977.28;5003740;28;20044;-61
2023/07/21 06:36:51;;;;;;;12.98;11.88;;;;;;;15.92;100.00;100980.03;4994745;28;20289;-61
2023/07/21 06:39:17;;;;;;;12.57;11.57;;;;;;;15.99;100.00;100974.03;4995862;28;20462;-63
2023/07/21 06:41:44;;;;;;;13.18;12.18;;;;;;;16.07;100.00;100967.19;5000779;28;20030;-61
2023/07/21 06:44:09;;;;;;;12.57;11.48;;;;;;;16.17;100.00;100975.13;4996436;28;20034;-61
2023/07/21 06:46:35;;;;;;;14.40;13.18;;;;;;;16.23;100.00;100971.69;4999604;28;20036;-61
2023/07/21 06:49:00;;;;;;;15.40;14.05;;;;;;;16.26;100.00;100972.59;4997696;28;20053;-62
2023/07/21 06:51:25;;;;;;;15.80;13.65;;;;;;;16.26;100.00;100971.72;5005483;28;20100;-61
2023/07/21 06:53:51;;;;;;;15.60;14.35;;;;;;;16.26;100.00;100972.59;5004229;28;20034;-61
2023/07/21 06:56:16;;;;;;;15.57;14.27;;;;;;;16.27;100.00;100966.50;5007737;28;20458;-61
2023/07/21 06:58:43;;;;;;;16.25;14.90;;;;;;;16.28;100.00;100978.72;5007411;28;20084;-61
2023/07/21 07:01:09;;;;;;;16.77;15.18;;;;;;;16.29;100.00;100970.03;4997913;28;20149;-62
2023/07/21 07:03:34;;;;;;;15.77;13.68;;;;;;;16.33;100.00;100963.94;5007285;28;20026;-60
2023/07/21 07:06:00;;;;;;;14.63;13.35;;;;;;;16.41;100.00;100973.59;5007649;28;20362;-61
2023/07/21 07:08:25;;;;;;;14.93;13.70;;;;;;;16.46;100.00;100977.13;4993172;28;20042;-61
2023/07/21 07:10:51;;;;;;;15.30;13.80;;;;;;;16.50;100.00;100971.09;4994159;28;20101;-61
2023/07/21 07:13:16;;;;;;;15.07;13.63;;;;;;;16.52;100.00;100969.38;5001830;28;20670;-61
2023/07/21 07:15:46;;;;;;;16.42;14.82;;;;;;;16.56;100.00;100967.66;5007065;28;20049;-61
2023/07/21 07:18:12;;;;;;;14.77;13.52;;;;;;;16.60;100.00;100964.22;5007599;28;20029;-61
2023/07/21 07:20:38;;;;;;;16.65;15.05;;;;;;;16.65;100.00;100961.63;5001976;28;20170;-61
2023/07/21 07:23:03;;;;;;;16.80;15.30;;;;;;;16.69;100.00;100969.50;5004267;28;20517;-62
2023/07/21 07:25:29;;;;;;;14.35;13.05;;;;;;;16.77;100.00;100960.84;5003276;28;20045;-61
2023/07/21 07:27:54;;;;;;;14.30;13.00;;;;;;;16.86;100.00;100960.03;5000416;28;20030;-62
2023/07/21 07:30:20;;;;;;;14.43;13.27;;;;;;;16.97;100.00;100958.41;4997429;28;20021;-62
2023/07/21 07:32:45;;;;;;;13.18;11.95;;;;;;;17.20;100.00;100965.56;5007431;28;20034;-61
2023/07/21 07:35:11;;;;;;;12.88;11.75;;;;;;;17.47;100.00;100965.69;5001739;28;20065;-62
2023/07/21 07:37:36;;;;;;;14.48;13.18;;;;;;;17.71;100.00;100962.34;4990191;28;20580;-62
2023/07/21 07:40:05;;;;;;;11.23;10.30;;;;;;;17.92;100.00;100960.66;4990756;28;20014;-61
2023/07/21 07:42:30;;;;;;;11.30;10.35;;;;;;;18.06;100.00;100960.69;4991717;28;20050;-61
2023/07/21 07:44:59;;;;;;;10.48;9.40;;;;;;;18.18;100.00;100962.53;4990388;28;20498;-63
2023/07/21 07:47:24;;;;;;;10.13;9.10;;;;;;;18.30;100.00;100968.66;4999247;28;20038;-61
2023/07/21 07:49:50;;;;;;;9.10;8.20;;;;;;;18.36;99.37;100973.91;5006719;28;20032;-62
2023/07/21 07:52:17;;;;;;;8.80;8.07;;;;;;;18.42;99.46;100970.44;4995271;28;20184;-62
2023/07/21 07:54:42;;;;;;;8.27;7.47;;;;;;;18.49;99.94;100969.56;5007145;28;20022;-61
2023/07/21 07:57:08;;;;;;;8.70;7.85;;;;;;;18.57;99.15;100969.56;5006975;28;20030;-62
2023/07/21 07:59:33;;;;;;;8.80;8.00;;;;;;;18.64;98.92;100968.69;5006104;28;20474;-62
2023/07/21 08:01:58;;;;;;;8.15;7.55;;;;;;;18.72;97.34;100974.84;4999047;28;20072;-62
2023/07/21 08:04:25;;;;;;;9.10;8.30;;;;;;;18.75;93.78;100975.69;5001532;28;20026;-61
2023/07/21 08:06:50;;;;;;;9.82;8.85;;;;;;;18.72;92.70;100980.06;5001918;28;20300;-62
2023/07/21 08:09:16;;;;;;;9.50;8.70;;;;;;;18.72;95.09;100974.84;4998800;28;20619;-63
2023/07/21 08:11:41;;;;;;;9.73;8.73;;;;;;;18.74;95.02;100966.06;5003623;28;20022;-62
2023/07/21 08:14:06;;;;;;;9.82;8.43;;;;;;;18.80;95.71;100968.69;4997569;28;20104;-62
2023/07/21 08:16:32;;;;;;;10.00;9.10;;;;;;;18.86;92.81;100963.44;5002483;28;20034;-61
2023/07/21 08:18:57;;;;;;;10.15;9.25;;;;;;;18.90;92.10;100967.81;5003137;28;20897;-61
2023/07/21 08:21:24;;;;;;;10.75;9.75;;;;;;;18.94;93.12;100964.28;5004197;28;20476;-62
2023/07/21 08:23:50;;;;;;;10.52;9.63;;;;;;;19.03;91.30;100967.81;5006318;28;20394;-61
2023/07/21 08:26:16;;;;;;;9.60;8.70;;;;;;;19.18;93.18;100962.56;5006200;28;20124;-61
2023/07/21 08:28:41;;;;;;;9.85;8.95;;;;;;;19.31;89.38;100967.78;5005128;28;20140;-61
2023/07/21 08:31:06;;;;;;;10.52;7.90;;;;;;;19.37;87.45;100967.78;5005238;28;20075;-61
2023/07/21 08:33:32;;;;;;;9.70;8.48;;;;;;;19.43;86.00;100962.50;5004466;28;20414;-62
2023/07/21 08:35:57;;;;;;;8.15;7.35;;;;;;;19.44;84.94;100966.00;5003808;28;20026;-61
2023/07/21 08:38:23;;;;;;;8.07;7.38;;;;;;;19.54;86.64;100964.19;5003734;28;20386;-61
2023/07/21 08:40:53;;;;;;;8.07;7.28;;;;;;;19.59;84.61;100966.84;5003271;28;20100;-62
2023/07/21 08:43:19;;;;;;;7.55;6.80;;;;;;;19.64;84.97;100965.94;5002454;28;20702;-63
2023/07/21 08:45:47;;;;;;;7.63;6.57;;;;;;;19.64;83.48;100965.94;5004939;28;20034;-61
2023/07/21 08:48:16;;;;;;;7.32;6.63;;;;;;;19.63;80.83;100964.16;5002482;28;20500;-62
2023/07/21 08:50:43;;;;;;;6.88;6.18;;;;;;;19.71;83.25;100972.03;4996809;28;20033;-62
2023/07/21 08:53:08;;;;;;;10.32;8.15;;;;;;;19.78;81.93;100967.63;5010164;28;20056;-61
2023/07/21 08:55:34;;;;;;;8.68;7.88;;;;;;;19.92;82.43;100967.53;5010002;28;20021;-62
2023/07/21 08:57:59;;;;;;;9.27;8.45;;;;;;;20.05;84.17;100963.13;4999302;28;20056;-62
2023/07/21 09:00:27;;;;;;;8.27;7.13;;;;;;;20.10;84.28;100963.09;4991092;28;20058;-61
2023/07/21 09:02:59;;;;;;;8.85;8.15;;;;;;;20.08;82.20;100965.75;4990638;28;20061;-61
2023/07/21 09:05:24;;;;;;;8.95;8.25;;;;;;;20.02;82.10;100971.88;4991446;28;20031;-61
2023/07/21 09:07:49;;;;;;;9.50;8.57;;;;;;;19.93;83.90;100964.06;4991232;28;20038;-62
2023/07/21 09:10:30;;;;;;;10.73;9.82;;;;;;;19.80;83.47;100960.59;4991179;28;20022;-61
2023/07/21 09:12:55;;;;;;;11.75;10.60;;;;;;;19.73;83.36;100958.88;4991391;28;20474;-62
2023/07/21 09:15:20;;;;;;;11.20;10.20;;;;;;;19.65;82.28;100966.78;4991164;28;20021;-62
2023/07/21 09:17:47;;;;;;;10.55;9.65;;;;;;;19.63;84.38;100966.81;4990543;28;20035;-63
2023/07/21 09:20:12;;;;;;;9.52;8.68;;;;;;;19.60;85.44;100973.81;4991026;28;20181;-61
2023/07/21 09:22:41;;;;;;;9.93;9.02;;;;;;;19.59;87.26;100967.69;4990460;28;20028;-61
2023/07/21 09:25:08;;;;;;;10.32;9.48;;;;;;;19.75;87.16;100965.88;4991097;28;20030;-61
2023/07/21 09:27:35;;;;;;;9.60;8.77;;;;;;;20.07;88.31;100964.00;4990492;28;20065;-63
2023/07/21 09:30:02;;;;;;;10.52;9.73;;;;;;;20.42;85.95;100963.78;4990464;28;20044;-62
2023/07/21 09:32:27;;;;;;;10.23;9.32;;;;;;;20.63;81.74;100960.97;4990574;28;20360;-61
2023/07/21 09:34:56;;;;;;;12.52;11.43;;;;;;;20.82;78.27;100958.19;4990405;28;20032;-61
2023/07/21 09:37:24;;;;;;;9.65;8.60;;;;;;;21.04;79.31;100951.88;4990482;28;20378;-62
2023/07/21 09:40:05;;;;;;;11.35;10.35;;;;;;;21.05;78.39;100957.13;4990472;28;20030;-62
2023/07/21 09:42:32;;;;;;;14.35;9.73;;;;;;;21.00;78.69;100951.03;4989922;28;20050;-63
2023/07/21 09:44:58;;;;;;;11.50;10.48;;;;;;;21.10;77.19;100944.78;4989751;28;20026;-62
2023/07/21 09:47:24;;;;;;;13.05;11.95;;;;;;;21.27;73.76;100943.72;4989417;28;20019;-61
2023/07/21 09:49:51;;;;;;;11.52;10.43;;;;;;;21.56;77.12;100939.88;5002127;28;20033;-62
2023/07/21 09:52:18;;;;;;;10.73;9.70;;;;;;;21.89;75.93;100941.25;4993251;28;20061;-60
2023/07/21 09:54:47;;;;;;;10.35;9.38;;;;;;;22.11;71.79;100939.16;5009271;28;20030;-61
2023/07/21 09:57:16;;;;;;;14.87;13.47;;;;;;;22.15;67.63;100940.00;4997786;28;20225;-61
2023/07/21 09:59:45;;;;;;;11.93;10.82;;;;;;;22.19;67.65;100933.78;4989739;28;20033;-62
2023/07/21 10:02:12;;;;;;;10.32;9.23;;;;;;;22.36;67.94;100935.28;4991841;28;20475;-62
2023/07/21 10:04:38;;;;;;;11.07;9.98;;;;;;;22.38;67.62;100934.34;4989579;28;20471;-61
2023/07/21 10:07:05;;;;;;;11.27;10.18;;;;;;;22.40;67.48;100935.22;4994847;28;20597;-62
2023/07/21 10:09:32;;;;;;;10.85;9.95;;;;;;;22.42;66.42;100935.19;4996757;28;20054;-61
2023/07/21 10:12:17;;;;;;;11.75;10.65;;;;;;;22.33;67.22;100935.31;4990065;28;20022;-61
2023/07/21 10:14:45;;;;;;;11.40;10.35;;;;;;;22.16;67.27;100937.31;5003491;28;20411;-61
2023/07/21 10:17:21;;;;;;;10.45;9.45;;;;;;;22.00;67.57;100939.31;5000177;28;20022;-60
2023/07/21 10:19:47;;;;;;;11.68;10.55;;;;;;;21.69;67.52;100939.72;4999777;28;20041;-61
2023/07/21 10:22:24;;;;;;;10.95;10.00;;;;;;;21.49;67.42;100940.84;4996900;28;20049;-61
2023/07/21 10:24:51;;;;;;;11.27;10.10;;;;;;;21.27;69.39;100933.19;5000696;28;20505;-61
2023/07/21 10:27:21;;;;;;;10.85;9.88;;;;;;;21.09;71.89;100939.53;4994773;28;20011;-62
2023/07/21 10:30:20;;;;;;;13.63;12.27;;;;;;;20.91;74.36;100948.44;4996977;28;20385;-60
2023/07/21 10:32:45;;;;;;;15.30;13.93;;;;;;;20.79;82.34;100942.44;5008786;28;20164;-62
2023/07/21 10:35:37;;;;;;;14.30;12.90;;;;;;;20.67;84.07;100956.56;5008979;28;20112;-61
2023/07/21 10:38:22;;;;;;;15.48;14.07;;;;;;;20.53;86.76;100956.66;5005447;28;20497;-61
2023/07/21 10:40:47;;;;;;;14.98;13.68;;;;;;;20.36;90.71;100952.41;5006500;28;20449;-61
2023/07/21 10:43:13;;;;;;;16.27;14.88;;;;;;;20.24;88.29;100960.38;5007317;28;20069;-62
2023/07/21 10:45:39;;;;;;;16.38;14.75;;;;;;;20.15;90.93;100956.94;5005533;28;20367;-61
2023/07/21 10:48:11;;;;;;;16.92;15.30;;;;;;;20.07;91.95;100961.38;5008321;28;20057;-61
2023/07/21 10:50:41;;;;;;;17.20;15.50;;;;;;;19.99;92.46;100955.22;5004077;28;20018;-61
2023/07/21 10:53:06;;;;;;;17.73;16.23;;;;;;;19.92;93.17;100960.53;4999347;28;20022;-62
2023/07/21 10:55:32;;;;;;;18.30;16.60;;;;;;;19.80;96.17;100953.59;5006672;28;20036;-62
2023/07/21 10:57:57;;;;;;;17.55;15.85;;;;;;;19.74;95.46;100958.88;5004077;28;20054;-60
2023/07/21 11:00:22;;;;;;;16.58;15.18;;;;;;;19.67;93.45;100960.66;5007902;28;20397;-61
2023/07/21 11:02:54;;;;;;;14.13;12.82;;;;;;;19.58;94.14;100965.94;5003417;28;20038;-61
2023/07/21 11:05:19;;;;;;;11.13;10.02;;;;;;;19.33;92.61;100960.78;4999512;28;20026;-62
2023/07/21 11:07:44;;;;;;;8.30;5.85;;;;;;;18.88;88.14;100963.44;4993570;28;20025;-61
2023/07/21 11:10:09;;;;;;;6.00;4.78;;;;;;;18.57;87.54;100965.19;5006579;28;20018;-61